Mohler, Washington
Current Conditions -  °F | °C
As of 12:58 PM on Thursday 20 Nov 2014 (Local Time) from KSKA Reporting Station
Overcast Overcast  
Wind Chill: 27°   Ceiling: 1200
Heat Index: 32°   Visibility: 10mi
Dew Point: 27°   Wind: 5mph
Humidity: 80%   Direction: 250°WSW
Pressure: 30.02"   Gusts: NA
Location:  47.4°N, 118.33°W
Report Text: KSKA 202058Z AUTO 25004KT 10SM OVC012 00/M03 A3002 RMK AO2 UPE2057 SLP193 P0000 60000 57008 RVRNO $
Loading
Personal Weather Stations






























Interactive Weather Map New forecast layout! Learn more

10-Day Weather Forecast

Advertisements
Track Severe Weather on mobile